sensor_id;sensor_type;location;lat;lon;timestamp;temperature;humidity
32534;DHT22;18973;48.580;8.912;2023-02-26T00:00:30;1.60;99.90
32534;DHT22;18973;48.580;8.912;2023-02-26T00:02:56;1.60;99.90
32534;DHT22;18973;48.580;8.912;2023-02-26T00:05:21;1.50;99.90
32534;DHT22;18973;48.580;8.912;2023-02-26T00:07:47;1.50;99.90
32534;DHT22;18973;48.580;8.912;2023-02-26T00:10:13;1.50;99.90
32534;DHT22;18973;48.580;8.912;2023-02-26T00:12:42;1.50;99.90
32534;DHT22;18973;48.580;8.912;2023-02-26T00:15:10;1.40;99.90
32534;DHT22;18973;48.580;8.912;2023-02-26T00:20:18;1.20;99.90
32534;DHT22;18973;48.580;8.912;2023-02-26T00:22:44;1.20;99.90
32534;DHT22;18973;48.580;8.912;2023-02-26T00:25:10;1.30;99.90
32534;DHT22;18973;48.580;8.912;2023-02-26T00:27:36;1.40;99.90
32534;DHT22;18973;48.580;8.912;2023-02-26T00:30:05;1.30;99.90
32534;DHT22;18973;48.580;8.912;2023-02-26T00:32:31;1.20;99.90
32534;DHT22;18973;48.580;8.912;2023-02-26T00:34:58;1.30;99.90
32534;DHT22;18973;48.580;8.912;2023-02-26T00:40:47;1.20;99.90
32534;DHT22;18973;48.580;8.912;2023-02-26T00:43:21;1.30;99.90
32534;DHT22;18973;48.580;8.912;2023-02-26T00:51:30;1.10;99.90
32534;DHT22;18973;48.580;8.912;2023-02-26T00:56:41;1.00;99.90
32534;DHT22;18973;48.580;8.912;2023-02-26T00:59:07;1.10;99.90
32534;DHT22;18973;48.580;8.912;2023-02-26T01:01:32;1.10;99.90
32534;DHT22;18973;48.580;8.912;2023-02-26T01:03:58;0.90;99.90
32534;DHT22;18973;48.580;8.912;2023-02-26T01:06:27;1.10;99.90
32534;DHT22;18973;48.580;8.912;2023-02-26T01:08:56;1.10;99.90
32534;DHT22;18973;48.580;8.912;2023-02-26T01:11:24;1.10;99.90
32534;DHT22;18973;48.580;8.912;2023-02-26T01:13:50;1.10;99.90
32534;DHT22;18973;48.580;8.912;2023-02-26T01:16:20;1.20;99.90
32534;DHT22;18973;48.580;8.912;2023-02-26T01:18:54;1.10;99.90
32534;DHT22;18973;48.580;8.912;2023-02-26T01:21:30;1.00;99.90
32534;DHT22;18973;48.580;8.912;2023-02-26T01:23:58;0.90;99.90
32534;DHT22;18973;48.580;8.912;2023-02-26T01:26:27;0.90;99.90
32534;DHT22;18973;48.580;8.912;2023-02-26T01:28:54;0.80;99.90
32534;DHT22;18973;48.580;8.912;2023-02-26T01:33:54;0.90;99.90
32534;DHT22;18973;48.580;8.912;2023-02-26T01:36:22;0.70;99.90
32534;DHT22;18973;48.580;8.912;2023-02-26T01:49:38;0.80;99.90
32534;DHT22;18973;48.580;8.912;2023-02-26T01:52:06;0.70;99.90
32534;DHT22;18973;48.580;8.912;2023-02-26T01:54:37;0.60;99.90
32534;DHT22;18973;48.580;8.912;2023-02-26T01:57:14;0.50;99.90
32534;DHT22;18973;48.580;8.912;2023-02-26T01:59:44;0.50;99.90
32534;DHT22;18973;48.580;8.912;2023-02-26T02:02:12;0.50;99.90
32534;DHT22;18973;48.580;8.912;2023-02-26T02:04:40;0.60;99.90
32534;DHT22;18973;48.580;8.912;2023-02-26T02:07:07;0.60;99.90
32534;DHT22;18973;48.580;8.912;2023-02-26T02:09:33;0.60;99.90
32534;DHT22;18973;48.580;8.912;2023-02-26T02:12:30;0.60;99.90
32534;DHT22;18973;48.580;8.912;2023-02-26T02:18:17;0.40;99.90
32534;DHT22;18973;48.580;8.912;2023-02-26T02:31:19;0.10;99.90
32534;DHT22;18973;48.580;8.912;2023-02-26T02:36:19;0.20;99.90
32534;DHT22;18973;48.580;8.912;2023-02-26T02:39:09;0.20;99.90
32534;DHT22;18973;48.580;8.912;2023-02-26T02:41:43;0.20;99.90
32534;DHT22;18973;48.580;8.912;2023-02-26T02:44:13;0.20;99.90
32534;DHT22;18973;48.580;8.912;2023-02-26T02:46:43;0.20;99.90
32534;DHT22;18973;48.580;8.912;2023-02-26T02:49:33;0.20;99.90
32534;DHT22;18973;48.580;8.912;2023-02-26T02:52:16;0.20;99.90
32534;DHT22;18973;48.580;8.912;2023-02-26T02:55:09;0.10;99.90
32534;DHT22;18973;48.580;8.912;2023-02-26T02:57:41;0.10;99.90
32534;DHT22;18973;48.580;8.912;2023-02-26T03:00:10;0.20;99.90
32534;DHT22;18973;48.580;8.912;2023-02-26T03:03:03;0.20;99.90
32534;DHT22;18973;48.580;8.912;2023-02-26T03:05:31;0.20;99.90
32534;DHT22;18973;48.580;8.912;2023-02-26T03:08:07;0.30;99.90
32534;DHT22;18973;48.580;8.912;2023-02-26T03:10:34;0.40;99.90
32534;DHT22;18973;48.580;8.912;2023-02-26T03:13:00;0.40;99.90
32534;DHT22;18973;48.580;8.912;2023-02-26T03:15:41;0.30;99.90
32534;DHT22;18973;48.580;8.912;2023-02-26T03:32:26;0.40;99.90
32534;DHT22;18973;48.580;8.912;2023-02-26T03:35:00;0.30;99.90
32534;DHT22;18973;48.580;8.912;2023-02-26T03:37:39;0.40;99.90
32534;DHT22;18973;48.580;8.912;2023-02-26T03:40:10;0.30;99.90
32534;DHT22;18973;48.580;8.912;2023-02-26T03:43:12;0.30;99.90
32534;DHT22;18973;48.580;8.912;2023-02-26T03:45:36;0.30;99.90
32534;DHT22;18973;48.580;8.912;2023-02-26T03:48:06;0.20;99.90
32534;DHT22;18973;48.580;8.912;2023-02-26T03:50:45;-0.20;99.90
32534;DHT22;18973;48.580;8.912;2023-02-26T03:53:17;-0.20;99.90
32534;DHT22;18973;48.580;8.912;2023-02-26T03:55:49;-0.10;99.90
32534;DHT22;18973;48.580;8.912;2023-02-26T03:58:17;-0.20;99.90
32534;DHT22;18973;48.580;8.912;2023-02-26T04:00:46;0.00;99.90
32534;DHT22;18973;48.580;8.912;2023-02-26T04:05:53;-0.10;99.90
32534;DHT22;18973;48.580;8.912;2023-02-26T04:08:21;-0.10;99.90
32534;DHT22;18973;48.580;8.912;2023-02-26T04:10:58;-0.20;99.90
32534;DHT22;18973;48.580;8.912;2023-02-26T04:13:25;0.00;99.90
32534;DHT22;18973;48.580;8.912;2023-02-26T04:15:50;0.00;99.90
32534;DHT22;18973;48.580;8.912;2023-02-26T04:18:16;-0.20;99.90
32534;DHT22;18973;48.580;8.912;2023-02-26T04:20:42;-0.20;99.90
32534;DHT22;18973;48.580;8.912;2023-02-26T04:23:08;-0.20;99.90
32534;DHT22;18973;48.580;8.912;2023-02-26T04:25:34;-0.10;99.90
32534;DHT22;18973;48.580;8.912;2023-02-26T04:27:59;-0.10;99.90
32534;DHT22;18973;48.580;8.912;2023-02-26T04:30:25;-0.20;99.90
32534;DHT22;18973;48.580;8.912;2023-02-26T04:32:51;-0.30;99.90
32534;DHT22;18973;48.580;8.912;2023-02-26T04:35:19;-0.20;99.90
32534;DHT22;18973;48.580;8.912;2023-02-26T04:37:45;-0.20;99.90
32534;DHT22;18973;48.580;8.912;2023-02-26T04:40:11;-0.20;99.90
32534;DHT22;18973;48.580;8.912;2023-02-26T04:42:37;-0.60;99.90
32534;DHT22;18973;48.580;8.912;2023-02-26T04:45:03;-0.90;99.90
32534;DHT22;18973;48.580;8.912;2023-02-26T04:47:28;-1.00;99.90
32534;DHT22;18973;48.580;8.912;2023-02-26T04:49:54;-0.80;99.90
32534;DHT22;18973;48.580;8.912;2023-02-26T04:52:20;-0.70;99.90
32534;DHT22;18973;48.580;8.912;2023-02-26T04:54:45;-0.80;99.90
32534;DHT22;18973;48.580;8.912;2023-02-26T04:57:11;-0.80;99.90
32534;DHT22;18973;48.580;8.912;2023-02-26T04:59:37;-1.00;99.90
32534;DHT22;18973;48.580;8.912;2023-02-26T05:02:04;-0.90;99.90
32534;DHT22;18973;48.580;8.912;2023-02-26T05:04:30;-0.70;99.90
32534;DHT22;18973;48.580;8.912;2023-02-26T05:06:56;-0.70;99.90
32534;DHT22;18973;48.580;8.912;2023-02-26T05:09:21;-0.90;99.90
32534;DHT22;18973;48.580;8.912;2023-02-26T05:11:47;-0.90;99.90
32534;DHT22;18973;48.580;8.912;2023-02-26T05:14:14;-1.00;99.90
32534;DHT22;18973;48.580;8.912;2023-02-26T05:16:40;-0.80;99.90
32534;DHT22;18973;48.580;8.912;2023-02-26T05:19:06;-1.00;99.90
32534;DHT22;18973;48.580;8.912;2023-02-26T05:21:31;-1.10;99.90
32534;DHT22;18973;48.580;8.912;2023-02-26T05:23:57;-1.00;99.90
32534;DHT22;18973;48.580;8.912;2023-02-26T05:26:23;-1.10;99.90
32534;DHT22;18973;48.580;8.912;2023-02-26T05:28:49;-1.00;99.90
32534;DHT22;18973;48.580;8.912;2023-02-26T05:31:15;-0.90;99.90
32534;DHT22;18973;48.580;8.912;2023-02-26T05:33:40;-1.00;99.90
32534;DHT22;18973;48.580;8.912;2023-02-26T05:36:07;-0.80;99.90
32534;DHT22;18973;48.580;8.912;2023-02-26T05:38:33;-0.80;99.90
32534;DHT22;18973;48.580;8.912;2023-02-26T05:41:00;-0.80;99.90
32534;DHT22;18973;48.580;8.912;2023-02-26T05:43:26;-0.90;99.90
32534;DHT22;18973;48.580;8.912;2023-02-26T05:45:53;-0.90;99.90
32534;DHT22;18973;48.580;8.912;2023-02-26T05:48:20;-1.00;99.90
32534;DHT22;18973;48.580;8.912;2023-02-26T05:50:47;-0.90;99.90
32534;DHT22;18973;48.580;8.912;2023-02-26T05:53:13;-0.80;99.90
32534;DHT22;18973;48.580;8.912;2023-02-26T05:55:39;-0.90;99.90
32534;DHT22;18973;48.580;8.912;2023-02-26T05:58:04;-0.90;99.90
32534;DHT22;18973;48.580;8.912;2023-02-26T06:00:30;-0.80;99.90
32534;DHT22;18973;48.580;8.912;2023-02-26T06:02:56;-0.70;99.90
32534;DHT22;18973;48.580;8.912;2023-02-26T06:05:21;-0.80;99.90
32534;DHT22;18973;48.580;8.912;2023-02-26T06:07:47;-0.80;99.90
32534;DHT22;18973;48.580;8.912;2023-02-26T06:10:13;-0.70;99.90
32534;DHT22;18973;48.580;8.912;2023-02-26T06:12:39;-0.70;99.90
32534;DHT22;18973;48.580;8.912;2023-02-26T06:15:05;-0.60;99.90
32534;DHT22;18973;48.580;8.912;2023-02-26T06:17:32;-0.90;99.90
32534;DHT22;18973;48.580;8.912;2023-02-26T06:19:58;-0.80;99.90
32534;DHT22;18973;48.580;8.912;2023-02-26T06:22:24;-0.90;99.90
32534;DHT22;18973;48.580;8.912;2023-02-26T06:24:49;-0.80;99.90
32534;DHT22;18973;48.580;8.912;2023-02-26T06:27:15;-0.70;99.90
32534;DHT22;18973;48.580;8.912;2023-02-26T06:29:41;-0.90;99.90
32534;DHT22;18973;48.580;8.912;2023-02-26T06:32:07;-0.80;99.90
32534;DHT22;18973;48.580;8.912;2023-02-26T06:34:32;-0.70;99.90
32534;DHT22;18973;48.580;8.912;2023-02-26T06:36:59;-0.70;99.90
32534;DHT22;18973;48.580;8.912;2023-02-26T06:39:24;-0.90;99.90
32534;DHT22;18973;48.580;8.912;2023-02-26T06:41:50;-0.80;99.90
32534;DHT22;18973;48.580;8.912;2023-02-26T06:44:16;-0.90;99.90
32534;DHT22;18973;48.580;8.912;2023-02-26T06:46:41;-1.00;99.90
32534;DHT22;18973;48.580;8.912;2023-02-26T06:49:07;-1.00;99.90
32534;DHT22;18973;48.580;8.912;2023-02-26T06:51:34;-1.00;99.90
32534;DHT22;18973;48.580;8.912;2023-02-26T06:53:59;-1.00;99.90
32534;DHT22;18973;48.580;8.912;2023-02-26T06:56:25;-0.90;99.90
32534;DHT22;18973;48.580;8.912;2023-02-26T06:58:51;-0.90;99.90
32534;DHT22;18973;48.580;8.912;2023-02-26T07:01:17;-0.70;99.90
32534;DHT22;18973;48.580;8.912;2023-02-26T07:03:43;-0.80;99.90
32534;DHT22;18973;48.580;8.912;2023-02-26T07:06:10;-1.10;99.90
32534;DHT22;18973;48.580;8.912;2023-02-26T07:08:36;-1.10;99.90
32534;DHT22;18973;48.580;8.912;2023-02-26T07:11:03;-1.00;99.90
32534;DHT22;18973;48.580;8.912;2023-02-26T07:13:29;-0.90;99.90
32534;DHT22;18973;48.580;8.912;2023-02-26T07:15:55;-0.70;99.90
32534;DHT22;18973;48.580;8.912;2023-02-26T07:18:20;-0.60;99.90
32534;DHT22;18973;48.580;8.912;2023-02-26T07:20:48;-0.60;99.90
32534;DHT22;18973;48.580;8.912;2023-02-26T07:23:14;-0.60;99.90
32534;DHT22;18973;48.580;8.912;2023-02-26T07:25:40;-0.60;99.90
32534;DHT22;18973;48.580;8.912;2023-02-26T07:28:05;-0.60;99.90
32534;DHT22;18973;48.580;8.912;2023-02-26T07:30:31;-0.40;99.90
32534;DHT22;18973;48.580;8.912;2023-02-26T07:32:57;-0.50;99.90
32534;DHT22;18973;48.580;8.912;2023-02-26T07:35:23;-0.60;99.90
32534;DHT22;18973;48.580;8.912;2023-02-26T07:37:49;-0.60;99.90
32534;DHT22;18973;48.580;8.912;2023-02-26T07:40:14;-0.40;99.90
32534;DHT22;18973;48.580;8.912;2023-02-26T07:42:40;-0.30;99.90
32534;DHT22;18973;48.580;8.912;2023-02-26T07:45:07;-0.60;99.90
32534;DHT22;18973;48.580;8.912;2023-02-26T07:47:33;-0.80;99.90
32534;DHT22;18973;48.580;8.912;2023-02-26T07:49:59;-0.60;99.90
32534;DHT22;18973;48.580;8.912;2023-02-26T07:52:25;-0.30;99.90
32534;DHT22;18973;48.580;8.912;2023-02-26T07:54:50;-0.20;99.90
32534;DHT22;18973;48.580;8.912;2023-02-26T07:57:17;0.40;99.90
32534;DHT22;18973;48.580;8.912;2023-02-26T07:59:43;1.20;99.90
32534;DHT22;18973;48.580;8.912;2023-02-26T08:02:11;1.70;99.90
32534;DHT22;18973;48.580;8.912;2023-02-26T08:04:37;2.50;99.90
32534;DHT22;18973;48.580;8.912;2023-02-26T08:07:03;2.80;99.90
32534;DHT22;18973;48.580;8.912;2023-02-26T08:09:29;2.30;99.90
32534;DHT22;18973;48.580;8.912;2023-02-26T08:11:55;2.10;99.90
32534;DHT22;18973;48.580;8.912;2023-02-26T08:14:22;1.90;99.90
32534;DHT22;18973;48.580;8.912;2023-02-26T08:16:48;0.80;99.90
32534;DHT22;18973;48.580;8.912;2023-02-26T08:19:14;0.30;99.90
32534;DHT22;18973;48.580;8.912;2023-02-26T08:21:39;0.30;99.90
32534;DHT22;18973;48.580;8.912;2023-02-26T08:24:05;0.30;99.90
32534;DHT22;18973;48.580;8.912;2023-02-26T08:26:34;0.10;99.90
32534;DHT22;18973;48.580;8.912;2023-02-26T08:29:01;0.20;99.90
32534;DHT22;18973;48.580;8.912;2023-02-26T08:31:27;0.30;99.90
32534;DHT22;18973;48.580;8.912;2023-02-26T08:33:53;0.50;99.90
32534;DHT22;18973;48.580;8.912;2023-02-26T08:36:19;0.50;99.90
32534;DHT22;18973;48.580;8.912;2023-02-26T08:38:46;0.10;99.90
32534;DHT22;18973;48.580;8.912;2023-02-26T08:41:12;0.10;99.90
32534;DHT22;18973;48.580;8.912;2023-02-26T08:43:38;-0.30;99.90
32534;DHT22;18973;48.580;8.912;2023-02-26T08:46:04;-0.40;99.90
32534;DHT22;18973;48.580;8.912;2023-02-26T08:48:30;0.20;99.90
32534;DHT22;18973;48.580;8.912;2023-02-26T08:50:56;0.30;99.90
32534;DHT22;18973;48.580;8.912;2023-02-26T08:53:22;0.40;99.90
32534;DHT22;18973;48.580;8.912;2023-02-26T08:55:49;0.70;99.90
32534;DHT22;18973;48.580;8.912;2023-02-26T08:58:16;0.30;99.90
32534;DHT22;18973;48.580;8.912;2023-02-26T09:00:41;0.00;99.90
32534;DHT22;18973;48.580;8.912;2023-02-26T09:03:09;0.10;99.90
32534;DHT22;18973;48.580;8.912;2023-02-26T09:05:35;-0.30;99.90
32534;DHT22;18973;48.580;8.912;2023-02-26T09:08:01;-0.30;99.90
32534;DHT22;18973;48.580;8.912;2023-02-26T09:10:27;-0.10;99.90
32534;DHT22;18973;48.580;8.912;2023-02-26T09:12:53;0.00;99.90
32534;DHT22;18973;48.580;8.912;2023-02-26T09:15:19;-0.10;99.90
32534;DHT22;18973;48.580;8.912;2023-02-26T09:17:45;0.00;99.90
32534;DHT22;18973;48.580;8.912;2023-02-26T09:20:12;0.00;99.90
32534;DHT22;18973;48.580;8.912;2023-02-26T09:22:38;0.10;99.90
32534;DHT22;18973;48.580;8.912;2023-02-26T09:25:05;0.10;99.90
32534;DHT22;18973;48.580;8.912;2023-02-26T09:27:31;0.20;99.90
32534;DHT22;18973;48.580;8.912;2023-02-26T09:29:57;0.30;99.90
32534;DHT22;18973;48.580;8.912;2023-02-26T09:32:23;0.50;99.90
32534;DHT22;18973;48.580;8.912;2023-02-26T09:34:50;0.40;99.90
32534;DHT22;18973;48.580;8.912;2023-02-26T09:37:16;0.30;99.90
32534;DHT22;18973;48.580;8.912;2023-02-26T09:39:41;0.20;99.90
32534;DHT22;18973;48.580;8.912;2023-02-26T09:42:19;0.00;99.90
32534;DHT22;18973;48.580;8.912;2023-02-26T09:44:47;-0.10;99.90
32534;DHT22;18973;48.580;8.912;2023-02-26T09:50:55;-0.10;99.90
32534;DHT22;18973;48.580;8.912;2023-02-26T09:52:58;-0.30;99.90
32534;DHT22;18973;48.580;8.912;2023-02-26T09:55:34;-0.40;99.90
32534;DHT22;18973;48.580;8.912;2023-02-26T09:58:08;-0.20;99.90
32534;DHT22;18973;48.580;8.912;2023-02-26T10:06:28;-0.40;99.90
32534;DHT22;18973;48.580;8.912;2023-02-26T10:12:13;-0.30;99.90
32534;DHT22;18973;48.580;8.912;2023-02-26T10:14:46;-0.30;99.90
32534;DHT22;18973;48.580;8.912;2023-02-26T10:19:53;-0.30;99.90
32534;DHT22;18973;48.580;8.912;2023-02-26T10:25:21;-0.30;99.90
32534;DHT22;18973;48.580;8.912;2023-02-26T10:30:53;-0.30;99.90
32534;DHT22;18973;48.580;8.912;2023-02-26T10:33:38;-0.20;99.90
32534;DHT22;18973;48.580;8.912;2023-02-26T10:36:16;-0.20;99.90
32534;DHT22;18973;48.580;8.912;2023-02-26T10:38:48;-0.10;99.90
32534;DHT22;18973;48.580;8.912;2023-02-26T10:41:17;0.00;99.90
32534;DHT22;18973;48.580;8.912;2023-02-26T10:46:45;0.20;99.90
32534;DHT22;18973;48.580;8.912;2023-02-26T10:52:04;0.10;99.90
32534;DHT22;18973;48.580;8.912;2023-02-26T10:54:37;0.10;99.90
32534;DHT22;18973;48.580;8.912;2023-02-26T10:57:08;0.20;99.90
32534;DHT22;18973;48.580;8.912;2023-02-26T10:59:39;0.30;99.90
32534;DHT22;18973;48.580;8.912;2023-02-26T11:02:17;0.30;99.90
32534;DHT22;18973;48.580;8.912;2023-02-26T11:04:50;0.40;99.90
32534;DHT22;18973;48.580;8.912;2023-02-26T11:07:16;0.10;99.90
32534;DHT22;18973;48.580;8.912;2023-02-26T11:09:44;0.00;99.90
32534;DHT22;18973;48.580;8.912;2023-02-26T11:14:36;0.40;99.90
32534;DHT22;18973;48.580;8.912;2023-02-26T11:17:19;0.40;99.90
32534;DHT22;18973;48.580;8.912;2023-02-26T11:20:19;0.30;99.90
32534;DHT22;18973;48.580;8.912;2023-02-26T11:22:49;0.40;99.90
32534;DHT22;18973;48.580;8.912;2023-02-26T11:25:17;0.30;99.90
32534;DHT22;18973;48.580;8.912;2023-02-26T11:27:48;0.30;99.90
32534;DHT22;18973;48.580;8.912;2023-02-26T11:30:16;0.40;99.90
32534;DHT22;18973;48.580;8.912;2023-02-26T11:32:43;0.40;99.90
32534;DHT22;18973;48.580;8.912;2023-02-26T11:35:14;0.60;99.90
32534;DHT22;18973;48.580;8.912;2023-02-26T11:37:46;0.70;99.90
32534;DHT22;18973;48.580;8.912;2023-02-26T11:40:18;0.80;99.90
32534;DHT22;18973;48.580;8.912;2023-02-26T11:42:55;0.70;99.90
32534;DHT22;18973;48.580;8.912;2023-02-26T11:45:22;0.50;99.90
32534;DHT22;18973;48.580;8.912;2023-02-26T11:47:57;0.50;99.90
32534;DHT22;18973;48.580;8.912;2023-02-26T11:50:23;0.60;99.90
32534;DHT22;18973;48.580;8.912;2023-02-26T11:52:55;0.50;99.90
32534;DHT22;18973;48.580;8.912;2023-02-26T11:55:31;0.50;99.90
32534;DHT22;18973;48.580;8.912;2023-02-26T11:57:57;0.70;99.90
32534;DHT22;18973;48.580;8.912;2023-02-26T12:00:34;0.60;99.90
32534;DHT22;18973;48.580;8.912;2023-02-26T12:03:03;0.60;99.90
32534;DHT22;18973;48.580;8.912;2023-02-26T12:05:30;0.60;99.90
32534;DHT22;18973;48.580;8.912;2023-02-26T12:07:56;0.70;99.90
32534;DHT22;18973;48.580;8.912;2023-02-26T12:10:39;0.80;99.90
32534;DHT22;18973;48.580;8.912;2023-02-26T12:13:17;0.70;99.90
32534;DHT22;18973;48.580;8.912;2023-02-26T12:15:55;0.60;99.90
32534;DHT22;18973;48.580;8.912;2023-02-26T12:18:32;0.70;99.90
32534;DHT22;18973;48.580;8.912;2023-02-26T12:21:16;0.80;99.90
32534;DHT22;18973;48.580;8.912;2023-02-26T12:26:35;0.90;99.90
32534;DHT22;18973;48.580;8.912;2023-02-26T12:29:09;0.80;99.90
32534;DHT22;18973;48.580;8.912;2023-02-26T12:34:33;0.50;99.90
32534;DHT22;18973;48.580;8.912;2023-02-26T12:43:10;0.60;99.90
32534;DHT22;18973;48.580;8.912;2023-02-26T12:54:13;0.50;99.90
32534;DHT22;18973;48.580;8.912;2023-02-26T13:02:19;0.80;99.90
32534;DHT22;18973;48.580;8.912;2023-02-26T13:07:41;1.00;99.90
32534;DHT22;18973;48.580;8.912;2023-02-26T13:21:04;0.90;99.90
32534;DHT22;18973;48.580;8.912;2023-02-26T13:23:52;1.00;99.90
32534;DHT22;18973;48.580;8.912;2023-02-26T13:26:21;0.90;99.90
32534;DHT22;18973;48.580;8.912;2023-02-26T13:29:09;1.00;99.90
32534;DHT22;18973;48.580;8.912;2023-02-26T13:31:51;1.10;99.90
32534;DHT22;18973;48.580;8.912;2023-02-26T13:34:39;0.90;99.90
32534;DHT22;18973;48.580;8.912;2023-02-26T13:37:14;1.00;99.90
32534;DHT22;18973;48.580;8.912;2023-02-26T13:51:01;0.70;99.90
32534;DHT22;18973;48.580;8.912;2023-02-26T13:58:40;0.90;99.90
32534;DHT22;18973;48.580;8.912;2023-02-26T14:01:18;1.00;99.90
32534;DHT22;18973;48.580;8.912;2023-02-26T14:03:52;1.10;99.90
32534;DHT22;18973;48.580;8.912;2023-02-26T14:06:47;1.20;99.90
32534;DHT22;18973;48.580;8.912;2023-02-26T14:19:36;1.20;99.90
32534;DHT22;18973;48.580;8.912;2023-02-26T14:27:40;1.30;99.90
32534;DHT22;18973;48.580;8.912;2023-02-26T14:35:13;1.40;99.90
32534;DHT22;18973;48.580;8.912;2023-02-26T14:37:42;1.30;99.90
32534;DHT22;18973;48.580;8.912;2023-02-26T14:40:17;1.30;99.90
32534;DHT22;18973;48.580;8.912;2023-02-26T14:42:50;1.50;99.90
32534;DHT22;18973;48.580;8.912;2023-02-26T14:45:31;1.60;99.90
32534;DHT22;18973;48.580;8.912;2023-02-26T14:48:01;1.70;99.90
32534;DHT22;18973;48.580;8.912;2023-02-26T15:04:27;2.00;99.90
32534;DHT22;18973;48.580;8.912;2023-02-26T15:21:28;2.10;99.10
32534;DHT22;18973;48.580;8.912;2023-02-26T15:23:54;2.10;97.90
32534;DHT22;18973;48.580;8.912;2023-02-26T15:26:30;1.80;97.20
32534;DHT22;18973;48.580;8.912;2023-02-26T15:28:57;1.90;97.50
32534;DHT22;18973;48.580;8.912;2023-02-26T15:31:34;1.80;97.00
32534;DHT22;18973;48.580;8.912;2023-02-26T15:34:02;1.80;97.30
32534;DHT22;18973;48.580;8.912;2023-02-26T15:36:29;1.80;96.90
32534;DHT22;18973;48.580;8.912;2023-02-26T15:38:58;1.90;97.00
32534;DHT22;18973;48.580;8.912;2023-02-26T15:41:26;1.80;96.80
32534;DHT22;18973;48.580;8.912;2023-02-26T15:43:59;1.80;97.10
32534;DHT22;18973;48.580;8.912;2023-02-26T15:46:38;1.70;96.60
32534;DHT22;18973;48.580;8.912;2023-02-26T15:49:11;1.70;97.30
32534;DHT22;18973;48.580;8.912;2023-02-26T15:51:38;1.60;97.00
32534;DHT22;18973;48.580;8.912;2023-02-26T15:54:05;1.60;97.60
32534;DHT22;18973;48.580;8.912;2023-02-26T15:56:37;1.60;97.00
32534;DHT22;18973;48.580;8.912;2023-02-26T15:59:26;1.50;96.90
32534;DHT22;18973;48.580;8.912;2023-02-26T16:01:53;1.50;96.70
32534;DHT22;18973;48.580;8.912;2023-02-26T16:04:20;1.40;96.50
32534;DHT22;18973;48.580;8.912;2023-02-26T16:06:56;1.40;96.90
32534;DHT22;18973;48.580;8.912;2023-02-26T16:09:50;1.30;97.40
32534;DHT22;18973;48.580;8.912;2023-02-26T16:12:36;1.30;98.50
32534;DHT22;18973;48.580;8.912;2023-02-26T16:15:10;1.10;97.70
32534;DHT22;18973;48.580;8.912;2023-02-26T16:17:41;1.20;98.30
32534;DHT22;18973;48.580;8.912;2023-02-26T16:20:15;1.20;98.00
32534;DHT22;18973;48.580;8.912;2023-02-26T16:22:49;1.20;98.50
32534;DHT22;18973;48.580;8.912;2023-02-26T16:25:33;1.20;98.50
32534;DHT22;18973;48.580;8.912;2023-02-26T16:28:13;1.00;97.70
32534;DHT22;18973;48.580;8.912;2023-02-26T16:30:42;1.10;98.10
32534;DHT22;18973;48.580;8.912;2023-02-26T16:33:12;1.20;98.40
32534;DHT22;18973;48.580;8.912;2023-02-26T16:35:43;1.20;98.60
32534;DHT22;18973;48.580;8.912;2023-02-26T16:38:26;1.10;98.20
32534;DHT22;18973;48.580;8.912;2023-02-26T16:40:59;1.10;98.40
32534;DHT22;18973;48.580;8.912;2023-02-26T16:46:30;1.00;98.50
32534;DHT22;18973;48.580;8.912;2023-02-26T16:51:28;1.00;97.40
32534;DHT22;18973;48.580;8.912;2023-02-26T16:53:58;1.10;96.10
32534;DHT22;18973;48.580;8.912;2023-02-26T16:56:27;1.00;95.90
32534;DHT22;18973;48.580;8.912;2023-02-26T16:59:24;1.00;95.80
32534;DHT22;18973;48.580;8.912;2023-02-26T17:02:03;0.90;95.30
32534;DHT22;18973;48.580;8.912;2023-02-26T17:04:34;0.90;95.10
32534;DHT22;18973;48.580;8.912;2023-02-26T17:07:04;0.80;95.30
32534;DHT22;18973;48.580;8.912;2023-02-26T17:12:15;0.90;95.80
32534;DHT22;18973;48.580;8.912;2023-02-26T17:14:45;0.90;95.80
32534;DHT22;18973;48.580;8.912;2023-02-26T17:17:12;0.90;95.50
32534;DHT22;18973;48.580;8.912;2023-02-26T17:19:38;0.80;95.80
32534;DHT22;18973;48.580;8.912;2023-02-26T17:22:04;0.70;96.20
32534;DHT22;18973;48.580;8.912;2023-02-26T17:24:35;0.70;95.70
32534;DHT22;18973;48.580;8.912;2023-02-26T17:27:06;0.70;95.90
32534;DHT22;18973;48.580;8.912;2023-02-26T17:29:38;0.80;95.50
32534;DHT22;18973;48.580;8.912;2023-02-26T17:32:22;0.80;95.70
32534;DHT22;18973;48.580;8.912;2023-02-26T17:34:49;0.80;95.40
32534;DHT22;18973;48.580;8.912;2023-02-26T17:37:16;0.80;95.10
32534;DHT22;18973;48.580;8.912;2023-02-26T17:39:42;0.80;95.10
32534;DHT22;18973;48.580;8.912;2023-02-26T17:42:12;0.70;94.50
32534;DHT22;18973;48.580;8.912;2023-02-26T17:44:38;0.70;94.80
32534;DHT22;18973;48.580;8.912;2023-02-26T17:47:05;0.60;94.70
32534;DHT22;18973;48.580;8.912;2023-02-26T17:49:30;0.70;94.60
32534;DHT22;18973;48.580;8.912;2023-02-26T17:51:56;0.60;94.30
32534;DHT22;18973;48.580;8.912;2023-02-26T17:54:22;0.60;94.90
32534;DHT22;18973;48.580;8.912;2023-02-26T17:56:48;0.60;94.00
32534;DHT22;18973;48.580;8.912;2023-02-26T17:59:14;0.60;94.50
32534;DHT22;18973;48.580;8.912;2023-02-26T18:01:40;0.70;94.50
32534;DHT22;18973;48.580;8.912;2023-02-26T18:04:06;0.60;94.10
32534;DHT22;18973;48.580;8.912;2023-02-26T18:06:35;0.50;94.10
32534;DHT22;18973;48.580;8.912;2023-02-26T18:09:02;0.50;94.20
32534;DHT22;18973;48.580;8.912;2023-02-26T18:11:31;0.40;94.60
32534;DHT22;18973;48.580;8.912;2023-02-26T18:13:57;0.40;94.50
32534;DHT22;18973;48.580;8.912;2023-02-26T18:16:30;0.40;94.90
32534;DHT22;18973;48.580;8.912;2023-02-26T18:18:57;0.50;95.10
32534;DHT22;18973;48.580;8.912;2023-02-26T18:21:24;0.60;95.10
32534;DHT22;18973;48.580;8.912;2023-02-26T18:23:53;0.60;95.20
32534;DHT22;18973;48.580;8.912;2023-02-26T18:26:22;0.60;95.50
32534;DHT22;18973;48.580;8.912;2023-02-26T18:28:50;0.60;95.70
32534;DHT22;18973;48.580;8.912;2023-02-26T18:31:16;0.50;95.20
32534;DHT22;18973;48.580;8.912;2023-02-26T18:33:42;0.50;96.20
32534;DHT22;18973;48.580;8.912;2023-02-26T18:36:20;0.40;95.50
32534;DHT22;18973;48.580;8.912;2023-02-26T18:38:47;0.30;96.00
32534;DHT22;18973;48.580;8.912;2023-02-26T18:41:13;0.30;96.10
32534;DHT22;18973;48.580;8.912;2023-02-26T18:43:39;0.30;96.60
32534;DHT22;18973;48.580;8.912;2023-02-26T18:46:04;0.30;96.50
32534;DHT22;18973;48.580;8.912;2023-02-26T18:48:31;0.40;96.20
32534;DHT22;18973;48.580;8.912;2023-02-26T18:50:57;0.30;96.20
32534;DHT22;18973;48.580;8.912;2023-02-26T18:53:24;0.20;96.00
32534;DHT22;18973;48.580;8.912;2023-02-26T18:55:52;0.30;96.10
32534;DHT22;18973;48.580;8.912;2023-02-26T18:58:19;0.30;96.40
32534;DHT22;18973;48.580;8.912;2023-02-26T19:00:45;0.30;95.50
32534;DHT22;18973;48.580;8.912;2023-02-26T19:03:11;0.10;95.70
32534;DHT22;18973;48.580;8.912;2023-02-26T19:05:37;0.10;96.40
32534;DHT22;18973;48.580;8.912;2023-02-26T19:08:04;0.10;95.90
32534;DHT22;18973;48.580;8.912;2023-02-26T19:10:30;0.10;96.00
32534;DHT22;18973;48.580;8.912;2023-02-26T19:12:56;0.10;96.60
32534;DHT22;18973;48.580;8.912;2023-02-26T19:15:23;0.20;96.00
32534;DHT22;18973;48.580;8.912;2023-02-26T19:17:49;0.10;95.70
32534;DHT22;18973;48.580;8.912;2023-02-26T19:20:15;0.00;96.30